Time;durP1;ratioP1;P1;durP2;ratioP2;P2;SDS_P1;SDS_P2;PMS_P1;PMS_P2;Temp;Humidity;BMP_temperature;BMP_pressure;BME280_temperature;BME280_humidity;BME280_pressure;Samples;Min_cycle;Max_cycle;Signal;HPM_P1;HPM_P2
2022/11/18 00:01:23;;;;;;;8.60;2.28;;;;;;;6.44;100.00;99402.72;5032173;28;20029;-72
2022/11/18 00:03:50;;;;;;;10.30;2.58;;;;;;;6.42;100.00;99410.06;5047777;28;20041;-71
2022/11/18 00:06:18;;;;;;;6.38;2.30;;;;;;;6.36;100.00;99401.44;5041032;28;20072;-71
2022/11/18 00:08:43;;;;;;;11.07;2.20;;;;;;;6.34;100.00;99405.25;5045506;28;20120;-72
2022/11/18 00:14:17;;;;;;;6.00;2.55;;;;;;;6.32;100.00;99405.38;5049375;28;20136;-73
2022/11/18 00:14:18;;;;;;;7.13;2.53;;;;;;;6.30;100.00;99404.63;5039303;28;20041;-71
2022/11/18 00:16:44;;;;;;;5.10;2.35;;;;;;;6.26;100.00;99408.56;5029748;28;20044;-72
2022/11/18 00:19:09;;;;;;;7.95;2.38;;;;;;;6.24;100.00;99407.81;5029658;28;20043;-70
2022/11/18 00:21:35;;;;;;;4.35;2.70;;;;;;;6.23;100.00;99407.94;5028995;28;20476;-72
2022/11/18 00:24:00;;;;;;;8.43;3.50;;;;;;;6.23;100.00;99411.47;5027413;28;20534;-71
2022/11/18 00:26:25;;;;;;;4.57;2.53;;;;;;;6.21;100.00;99418.00;5029199;28;20408;-71
2022/11/18 00:28:51;;;;;;;6.82;2.60;;;;;;;6.13;100.00;99418.59;5029535;28;20443;-71
2022/11/18 00:31:16;;;;;;;9.15;3.63;;;;;;;6.17;100.00;99430.00;5038312;28;20357;-71
2022/11/18 00:33:42;;;;;;;6.32;2.60;;;;;;;6.17;100.00;99427.31;5049304;28;20407;-71
2022/11/18 00:36:10;;;;;;;6.70;2.55;;;;;;;6.18;100.00;99431.72;5042301;28;20079;-71
2022/11/18 00:38:35;;;;;;;6.60;2.33;;;;;;;6.18;100.00;99431.72;5027606;28;20078;-71
2022/11/18 00:41:06;;;;;;;6.45;3.10;;;;;;;6.19;100.00;99437.00;5026599;28;20061;-72
2022/11/18 00:43:31;;;;;;;8.52;2.70;;;;;;;6.24;100.00;99440.19;5029206;28;20041;-71
2022/11/18 00:45:57;;;;;;;5.13;2.63;;;;;;;6.24;100.00;99442.03;5028401;28;20041;-70
2022/11/18 00:48:23;;;;;;;5.53;3.08;;;;;;;6.25;100.00;99447.34;5027529;28;20408;-71
2022/11/18 00:50:49;;;;;;;8.13;2.83;;;;;;;6.29;100.00;99450.66;5028606;28;20029;-72
2022/11/18 00:53:16;;;;;;;5.30;2.75;;;;;;;6.32;100.00;99450.44;5034842;28;20030;-71
2022/11/18 00:55:42;;;;;;;6.53;2.70;;;;;;;6.32;100.00;99445.88;5028967;28;20033;-71
2022/11/18 00:58:07;;;;;;;12.52;2.75;;;;;;;6.33;100.00;99447.59;5028631;28;20128;-71
2022/11/18 01:00:33;;;;;;;6.10;2.53;;;;;;;6.36;100.00;99455.47;5027063;28;20139;-71
2022/11/18 01:02:58;;;;;;;5.80;2.92;;;;;;;6.38;100.00;99460.75;5028812;28;20037;-71
2022/11/18 01:05:23;;;;;;;6.75;2.83;;;;;;;6.41;100.00;99462.38;5028569;28;20033;-72
2022/11/18 01:07:49;;;;;;;6.60;2.97;;;;;;;6.44;100.00;99470.25;5009898;28;20157;-72
2022/11/18 01:10:15;;;;;;;7.82;3.28;;;;;;;6.43;100.00;99469.34;5027181;28;20033;-72
2022/11/18 01:15:25;;;;;;;3.97;2.55;;;;;;;6.53;100.00;99478.50;5026906;28;20041;-72
2022/11/18 01:17:50;;;;;;;9.00;3.38;;;;;;;6.57;100.00;99476.38;5028519;28;20372;-71
2022/11/18 01:20:16;;;;;;;8.35;2.80;;;;;;;6.59;100.00;99479.84;5028284;28;20033;-71
2022/11/18 01:22:41;;;;;;;5.68;3.28;;;;;;;6.61;100.00;99475.16;5036777;28;20119;-73
2022/11/18 01:25:07;;;;;;;6.60;2.95;;;;;;;6.61;100.00;99491.38;5011501;28;20030;-71
2022/11/18 01:27:32;;;;;;;7.45;2.22;;;;;;;6.60;100.00;99485.13;5048204;28;20040;-70
2022/11/18 01:29:58;;;;;;;4.82;2.40;;;;;;;6.60;100.00;99489.66;5030837;28;20037;-71
2022/11/18 01:32:23;;;;;;;6.00;2.78;;;;;;;6.62;100.00;99493.09;5027012;28;20037;-71
2022/11/18 01:34:48;;;;;;;6.88;2.85;;;;;;;6.64;100.00;99499.25;5028304;28;20112;-70
2022/11/18 01:37:14;;;;;;;5.40;2.42;;;;;;;6.65;100.00;99504.53;5031196;28;20029;-72
2022/11/18 01:39:39;;;;;;;5.65;2.80;;;;;;;6.69;100.00;99512.41;5048327;28;20036;-72
2022/11/18 01:42:12;;;;;;;4.22;2.40;;;;;;;6.70;100.00;99500.63;5048213;28;20029;-71
2022/11/18 01:45:13;;;;;;;7.25;2.40;;;;;;;6.73;100.00;99519.31;5028718;28;20033;-71
2022/11/18 01:47:52;;;;;;;6.53;2.20;;;;;;;6.73;100.00;99519.31;5021428;28;20077;-71
2022/11/18 01:50:20;;;;;;;6.90;2.25;;;;;;;6.77;100.00;99518.09;5028144;28;20083;-72
2022/11/18 01:52:48;;;;;;;7.43;2.30;;;;;;;6.79;100.00;99519.69;5031032;28;20091;-71
2022/11/18 01:55:22;;;;;;;11.90;3.78;;;;;;;6.79;100.00;99518.81;5030396;28;20017;-73
2022/11/18 01:57:50;;;;;;;6.88;2.67;;;;;;;6.81;100.00;99519.56;5032077;28;20069;-71
2022/11/18 02:00:16;;;;;;;6.20;2.60;;;;;;;6.79;100.00;99525.09;5032381;28;20489;-72
2022/11/18 02:02:42;;;;;;;6.82;2.67;;;;;;;6.80;100.00;99523.22;5033950;28;20040;-72
2022/11/18 02:05:09;;;;;;;6.25;2.60;;;;;;;6.85;100.00;99529.13;5040006;28;20044;-72
2022/11/18 02:07:39;;;;;;;8.55;2.53;;;;;;;6.84;100.00;99533.69;5036304;28;20149;-72
2022/11/18 02:10:06;;;;;;;5.25;2.83;;;;;;;6.87;100.00;99529.91;5051555;28;20044;-72
2022/11/18 02:12:32;;;;;;;6.90;2.65;;;;;;;6.89;100.00;99533.34;5051216;28;20195;-72
2022/11/18 02:14:59;;;;;;;4.90;2.25;;;;;;;6.90;100.00;99533.22;5038943;28;20108;-72
2022/11/18 02:18:01;;;;;;;5.18;2.85;;;;;;;6.96;100.00;99537.28;5032180;28;20342;-71
2022/11/18 02:20:33;;;;;;;6.50;2.78;;;;;;;6.98;100.00;99540.72;5030025;28;20037;-72
2022/11/18 02:23:16;;;;;;;4.45;2.50;;;;;;;7.01;100.00;99542.34;5030335;28;20044;-71
2022/11/18 02:26:07;;;;;;;6.88;2.85;;;;;;;7.02;100.00;99542.22;5031649;28;20037;-70
2022/11/18 02:28:39;;;;;;;6.22;2.58;;;;;;;7.05;100.00;99550.09;5029901;28;20037;-70
2022/11/18 02:31:11;;;;;;;8.37;2.77;;;;;;;7.07;100.00;99549.97;5029754;28;20568;-71
2022/11/18 02:34:00;;;;;;;5.00;2.35;;;;;;;7.10;100.00;99555.13;5031181;28;20754;-72
2022/11/18 02:36:54;;;;;;;4.13;2.42;;;;;;;7.13;100.00;99554.88;5036872;28;20394;-72
2022/11/18 02:39:26;;;;;;;6.38;2.70;;;;;;;7.14;100.00;99554.78;5050452;28;20127;-71
2022/11/18 02:41:55;;;;;;;11.40;4.78;;;;;;;7.15;100.00;99558.34;5049498;28;20072;-71
2022/11/18 02:44:23;;;;;;;7.78;2.50;;;;;;;7.18;100.00;99566.22;5036186;28;20041;-72
2022/11/18 02:46:56;;;;;;;7.53;2.47;;;;;;;7.20;100.00;99566.94;5029482;28;20067;-71
2022/11/18 02:49:28;;;;;;;4.53;2.80;;;;;;;7.18;100.00;99568.03;5029225;28;20037;-70
2022/11/18 02:51:55;;;;;;;5.85;2.92;;;;;;;7.21;100.00;99567.81;5029239;28;20365;-71
2022/11/18 02:54:22;;;;;;;4.88;2.33;;;;;;;7.24;100.00;99570.28;5044189;28;20072;-71
2022/11/18 02:56:50;;;;;;;6.53;2.40;;;;;;;7.26;100.00;99574.56;5049785;28;20017;-72
2022/11/18 02:59:19;;;;;;;5.40;2.42;;;;;;;7.28;100.00;99575.31;5039124;28;20120;-73
2022/11/18 03:01:44;;;;;;;4.40;2.05;;;;;;;7.29;100.00;99578.88;5012699;28;20065;-72
2022/11/18 03:04:12;;;;;;;6.90;2.53;;;;;;;7.27;100.00;99570.00;5030000;28;20116;-72
2022/11/18 03:06:47;;;;;;;8.30;2.30;;;;;;;7.32;100.00;99584.91;5030283;28;20095;-73
2022/11/18 03:09:12;;;;;;;7.45;2.60;;;;;;;7.35;100.00;99581.09;5049046;28;20059;-72
2022/11/18 03:12:14;;;;;;;7.40;2.97;;;;;;;7.38;100.00;99586.28;5050362;28;20446;-72
2022/11/18 03:14:51;;;;;;;5.40;2.20;;;;;;;7.39;100.00;99586.13;5031583;28;20079;-72
2022/11/18 03:17:45;;;;;;;5.68;2.50;;;;;;;7.43;100.00;99594.03;5032561;28;20310;-71
2022/11/18 03:20:14;;;;;;;7.60;2.95;;;;;;;7.45;100.00;99592.91;5029095;28;20041;-72
2022/11/18 03:22:54;;;;;;;4.70;2.35;;;;;;;7.47;100.00;99598.22;5030497;28;20041;-71
2022/11/18 03:25:44;;;;;;;5.53;2.63;;;;;;;7.48;100.00;99592.66;5031607;28;20038;-70
2022/11/18 03:28:38;;;;;;;4.43;2.53;;;;;;;7.49;100.00;99597.09;5028857;28;20350;-71
2022/11/18 03:31:25;;;;;;;3.83;2.53;;;;;;;7.50;100.00;99596.09;5029938;28;20041;-73
2022/11/18 03:33:58;;;;;;;8.02;3.08;;;;;;;7.49;100.00;99607.06;5030033;28;20206;-71
2022/11/18 03:36:28;;;;;;;6.85;2.47;;;;;;;7.50;100.00;99609.63;5028505;28;20071;-73
2022/11/18 03:38:58;;;;;;;13.30;2.72;;;;;;;7.51;100.00;99622.19;5029485;28;20117;-73
2022/11/18 03:41:25;;;;;;;3.92;2.50;;;;;;;7.51;100.00;99616.78;5012081;28;20588;-72
2022/11/18 03:44:03;;;;;;;8.07;2.80;;;;;;;7.53;100.00;99628.34;5029831;28;20120;-72
2022/11/18 03:46:48;;;;;;;6.10;2.35;;;;;;;7.57;100.00;99632.53;5029687;28;20042;-71
2022/11/18 03:49:25;;;;;;;8.00;2.28;;;;;;;7.56;100.00;99624.53;5028434;28;20041;-72
2022/11/18 03:51:57;;;;;;;5.95;2.58;;;;;;;7.56;100.00;99622.69;5029523;28;20038;-72
2022/11/18 03:54:27;;;;;;;8.20;2.38;;;;;;;7.55;100.00;99625.50;5028254;28;20485;-72
2022/11/18 03:56:58;;;;;;;5.75;2.08;;;;;;;7.51;100.00;99630.31;5029599;28;20120;-72
2022/11/18 03:59:34;;;;;;;4.68;2.17;;;;;;;7.54;100.00;99640.03;5029843;28;20483;-71
2022/11/18 04:02:12;;;;;;;5.70;2.72;;;;;;;7.53;100.00;99641.00;5029334;28;20041;-72
2022/11/18 04:04:38;;;;;;;5.80;2.47;;;;;;;7.56;100.00;99644.34;5029634;28;20036;-72
2022/11/18 04:07:15;;;;;;;6.93;3.15;;;;;;;7.55;100.00;99652.56;5029134;28;20449;-71
2022/11/18 04:09:46;;;;;;;5.60;2.55;;;;;;;7.52;100.00;99650.97;5028178;28;20041;-71
2022/11/18 04:12:16;;;;;;;10.45;2.42;;;;;;;7.52;100.00;99660.94;5029496;28;20049;-71
2022/11/18 04:14:44;;;;;;;5.90;2.20;;;;;;;7.49;100.00;99658.47;5028591;28;20060;-70
2022/11/18 04:17:18;;;;;;;5.15;2.40;;;;;;;7.48;100.00;99673.00;5029614;28;20037;-71
2022/11/18 04:19:44;;;;;;;8.05;3.17;;;;;;;7.44;100.00;99669.66;5027870;28;20128;-72
2022/11/18 04:22:10;;;;;;;4.93;2.42;;;;;;;7.41;100.00;99672.59;5029493;28;20162;-71
2022/11/18 04:24:35;;;;;;;6.55;2.22;;;;;;;7.37;100.00;99681.94;5029339;28;20090;-71
2022/11/18 04:27:01;;;;;;;3.83;2.05;;;;;;;7.35;100.00;99667.66;5029053;28;20049;-71
2022/11/18 04:29:27;;;;;;;12.82;2.65;;;;;;;7.32;100.00;99681.41;5029171;28;20037;-71
2022/11/18 04:31:53;;;;;;;7.60;4.15;;;;;;;7.25;100.00;99681.03;5011259;28;20167;-72
2022/11/18 04:34:18;;;;;;;6.32;2.45;;;;;;;7.24;100.00;99681.19;5028729;28;20037;-71
2022/11/18 04:36:44;;;;;;;6.78;2.65;;;;;;;7.18;100.00;99678.91;5029169;28;20037;-71
2022/11/18 04:39:09;;;;;;;11.00;2.72;;;;;;;7.15;100.00;99680.91;5029049;28;20037;-71
2022/11/18 04:44:18;;;;;;;4.13;2.60;;;;;;;7.03;100.00;99695.34;5028679;28;20116;-72
2022/11/18 04:46:44;;;;;;;6.18;2.42;;;;;;;6.97;100.00;99697.66;5028809;28;20112;-73
2022/11/18 04:49:12;;;;;;;9.15;2.58;;;;;;;6.91;100.00;99707.13;5028966;28;20087;-71
2022/11/18 04:51:38;;;;;;;6.05;2.78;;;;;;;6.85;100.00;99708.44;5027316;28;20437;-71
2022/11/18 04:54:04;;;;;;;4.20;2.38;;;;;;;6.77;100.00;99702.75;5038399;28;20059;-72
2022/11/18 04:56:29;;;;;;;5.78;2.88;;;;;;;6.75;100.00;99706.53;5047269;28;20029;-71
2022/11/18 04:58:54;;;;;;;5.28;2.67;;;;;;;6.69;100.00;99705.16;5029311;28;20053;-71
2022/11/18 05:01:20;;;;;;;4.35;2.67;;;;;;;6.64;100.00;99708.19;5028631;28;20049;-72
2022/11/18 05:03:45;;;;;;;8.55;3.17;;;;;;;6.61;100.00;99718.38;5028472;28;20068;-71
2022/11/18 05:06:11;;;;;;;5.53;2.42;;;;;;;6.57;100.00;99715.03;5028741;28;20481;-73
2022/11/18 05:08:36;;;;;;;9.50;2.83;;;;;;;6.53;100.00;99720.78;5042322;28;20029;-72
2022/11/18 05:13:50;;;;;;;8.00;3.40;;;;;;;6.44;100.00;99721.47;5039827;28;20037;-72
2022/11/18 05:16:15;;;;;;;12.65;3.85;;;;;;;6.42;100.00;99723.41;5028367;28;20098;-72
2022/11/18 05:18:40;;;;;;;6.20;3.17;;;;;;;6.38;100.00;99728.16;5028850;28;20469;-72
2022/11/18 05:21:06;;;;;;;7.30;3.30;;;;;;;6.34;100.00;99741.06;5027264;28;20099;-72
2022/11/18 05:23:32;;;;;;;6.50;2.83;;;;;;;6.32;100.00;99739.44;5028421;28;20038;-72
2022/11/18 05:26:02;;;;;;;10.20;4.10;;;;;;;6.28;100.00;99740.63;5028302;28;20109;-71
2022/11/18 05:28:28;;;;;;;10.88;3.83;;;;;;;6.23;100.00;99735.56;5031979;28;20052;-72
2022/11/18 05:30:53;;;;;;;6.28;3.42;;;;;;;6.22;100.00;99736.53;5032116;28;20033;-72
2022/11/18 05:33:18;;;;;;;7.78;3.10;;;;;;;6.16;100.00;99744.22;5034666;28;20147;-72
2022/11/18 05:35:43;;;;;;;7.28;3.78;;;;;;;6.12;100.00;99741.72;5051627;28;20090;-73
2022/11/18 05:38:10;;;;;;;9.35;3.92;;;;;;;6.09;100.00;99743.78;5032285;28;20052;-72
2022/11/18 05:40:35;;;;;;;8.63;3.63;;;;;;;6.09;100.00;99758.13;5031942;28;20084;-72
2022/11/18 05:43:09;;;;;;;8.40;3.60;;;;;;;6.05;100.00;99762.03;5013988;28;20148;-72
2022/11/18 05:45:35;;;;;;;7.78;3.33;;;;;;;6.08;100.00;99761.81;5030728;28;20392;-72
2022/11/18 05:48:02;;;;;;;7.95;3.80;;;;;;;6.07;100.00;99762.81;5031721;28;20041;-72
2022/11/18 05:50:28;;;;;;;6.78;3.40;;;;;;;6.03;100.00;99760.44;5031037;28;20037;-71
2022/11/18 05:52:53;;;;;;;8.70;3.60;;;;;;;5.98;100.00;99763.47;5039584;28;20054;-72
2022/11/18 05:55:21;;;;;;;8.52;3.50;;;;;;;6.00;100.00;99760.63;5050526;28;20403;-73
2022/11/18 05:57:47;;;;;;;7.40;3.67;;;;;;;5.96;100.00;99773.47;5033538;28;20048;-72
2022/11/18 06:00:13;;;;;;;7.90;3.70;;;;;;;5.94;100.00;99775.44;5030809;28;20033;-72
2022/11/18 06:02:41;;;;;;;10.98;4.32;;;;;;;5.89;100.00;99773.03;5013853;28;20538;-71
2022/11/18 06:05:08;;;;;;;7.72;3.50;;;;;;;5.89;100.00;99781.13;5030347;28;20037;-72
2022/11/18 06:07:38;;;;;;;9.57;3.58;;;;;;;5.87;100.00;99774.97;5035562;28;20128;-71
2022/11/18 06:10:04;;;;;;;7.40;3.97;;;;;;;5.83;100.00;99784.25;5031297;28;20126;-71
2022/11/18 06:12:35;;;;;;;9.07;3.88;;;;;;;5.80;100.00;99786.31;5031046;28;20110;-72
2022/11/18 06:15:09;;;;;;;8.55;3.60;;;;;;;5.78;100.00;99796.31;5030993;28;20037;-72
2022/11/18 06:17:44;;;;;;;8.27;3.67;;;;;;;5.70;100.00;99783.38;5030250;28;20038;-73
2022/11/18 06:20:10;;;;;;;9.35;4.13;;;;;;;5.74;100.00;99803.78;5030329;28;20064;-73
2022/11/18 06:22:35;;;;;;;9.88;3.58;;;;;;;5.69;100.00;99808.66;5030752;28;20473;-72
2022/11/18 06:25:01;;;;;;;9.10;3.92;;;;;;;5.67;100.00;99810.56;5029729;28;20021;-72
2022/11/18 06:27:28;;;;;;;9.05;3.55;;;;;;;5.67;100.00;99813.28;5029342;28;20025;-72
2022/11/18 06:29:53;;;;;;;7.35;3.92;;;;;;;5.68;100.00;99824.91;5030822;28;20045;-73
2022/11/18 06:32:18;;;;;;;6.82;3.90;;;;;;;5.68;100.00;99827.63;5031207;28;20074;-72
2022/11/18 06:34:44;;;;;;;8.82;3.72;;;;;;;5.67;100.00;99826.75;5030594;28;20086;-72
2022/11/18 06:37:17;;;;;;;7.13;3.58;;;;;;;5.68;100.00;99825.78;5030417;28;20173;-72
2022/11/18 06:39:42;;;;;;;5.82;4.20;;;;;;;5.68;100.00;99831.19;5030168;28;20037;-72
2022/11/18 06:42:08;;;;;;;9.38;3.47;;;;;;;5.69;100.00;99832.03;5031055;28;20037;-71
2022/11/18 06:44:34;;;;;;;10.57;4.22;;;;;;;5.67;100.00;99837.56;5031077;28;20116;-71
2022/11/18 06:47:00;;;;;;;11.40;3.95;;;;;;;5.67;100.00;99834.00;5029082;28;20111;-72
2022/11/18 06:49:27;;;;;;;8.35;4.32;;;;;;;5.67;100.00;99837.56;5030688;28;20398;-71
2022/11/18 06:51:52;;;;;;;10.77;4.18;;;;;;;5.72;100.00;99838.09;5029283;28;20507;-72
2022/11/18 06:54:18;;;;;;;10.80;4.38;;;;;;;5.71;100.00;99857.97;5031148;28;20120;-72
2022/11/18 06:56:43;;;;;;;9.82;4.25;;;;;;;5.71;100.00;99857.09;5030473;28;20488;-74
2022/11/18 06:59:09;;;;;;;8.82;3.63;;;;;;;5.70;100.00;99853.53;5028864;28;20115;-71
2022/11/18 07:01:37;;;;;;;8.27;4.30;;;;;;;5.70;100.00;99860.78;5030451;28;20657;-72
2022/11/18 07:04:03;;;;;;;9.43;4.90;;;;;;;5.75;100.00;99861.31;5031217;28;20044;-72
2022/11/18 07:06:30;;;;;;;11.50;5.03;;;;;;;5.76;100.00;99865.75;5035086;28;20480;-71
2022/11/18 07:08:56;;;;;;;9.98;5.38;;;;;;;5.80;100.00;99870.81;5027967;28;20057;-72
2022/11/18 07:11:24;;;;;;;9.88;5.50;;;;;;;5.81;100.00;99874.38;5012677;28;20453;-72
2022/11/18 07:13:50;;;;;;;10.30;4.55;;;;;;;5.79;100.00;99882.59;5032038;28;20041;-71
2022/11/18 07:16:22;;;;;;;9.98;5.72;;;;;;;5.81;100.00;99879.78;5047974;28;20549;-72
2022/11/18 07:18:48;;;;;;;10.82;3.78;;;;;;;5.80;100.00;99886.16;5050483;28;20032;-72
2022/11/18 07:21:23;;;;;;;12.55;4.95;;;;;;;5.77;100.00;99889.91;5047304;28;20120;-71
2022/11/18 07:23:49;;;;;;;6.97;4.28;;;;;;;5.80;100.00;99894.25;5030225;28;20502;-72
2022/11/18 07:26:15;;;;;;;8.25;4.63;;;;;;;5.80;100.00;99887.03;5040576;28;20365;-74
2022/11/18 07:28:40;;;;;;;13.27;4.63;;;;;;;5.83;100.00;99897.63;5043938;28;20033;-72
2022/11/18 07:31:12;;;;;;;10.93;4.57;;;;;;;5.83;100.00;99904.84;5029048;28;20045;-73
2022/11/18 07:33:38;;;;;;;8.93;4.28;;;;;;;5.84;100.00;99902.03;5035281;28;20244;-72
2022/11/18 07:36:10;;;;;;;12.05;4.88;;;;;;;5.83;100.00;99916.50;5042805;28;20532;-72
2022/11/18 07:38:35;;;;;;;7.82;4.22;;;;;;;5.82;100.00;99912.06;5028990;28;20041;-71
2022/11/18 07:41:12;;;;;;;10.77;4.53;;;;;;;5.84;100.00;99912.84;5030688;28;20518;-72
2022/11/18 07:43:38;;;;;;;11.30;4.60;;;;;;;5.84;100.00;99920.06;5015513;28;20047;-72
2022/11/18 07:46:09;;;;;;;11.18;4.38;;;;;;;5.86;100.00;99918.97;5028862;28;20029;-72
2022/11/18 07:48:34;;;;;;;9.05;3.97;;;;;;;5.88;100.00;99924.31;5030072;28;20350;-72
2022/11/18 07:51:00;;;;;;;7.65;4.72;;;;;;;5.88;100.00;99929.69;5037821;28;20095;-73
2022/11/18 07:53:25;;;;;;;12.43;4.32;;;;;;;5.92;100.00;99931.22;5035868;28;20037;-71
2022/11/18 07:55:50;;;;;;;8.63;4.63;;;;;;;5.93;100.00;99930.28;5012226;28;20140;-72
2022/11/18 07:58:16;;;;;;;9.23;4.18;;;;;;;5.95;100.00;99941.81;5029736;28;20071;-73
2022/11/18 08:00:41;;;;;;;10.43;4.65;;;;;;;5.94;100.00;99937.41;5028864;28;20084;-72
2022/11/18 08:03:06;;;;;;;8.35;4.38;;;;;;;6.00;100.00;99949.63;5033687;28;20033;-73
2022/11/18 08:05:32;;;;;;;7.75;4.35;;;;;;;6.03;100.00;99949.41;5049717;28;20174;-72
2022/11/18 08:07:57;;;;;;;8.82;4.22;;;;;;;6.08;100.00;99947.25;5031925;28;20029;-72
2022/11/18 08:10:23;;;;;;;7.53;4.20;;;;;;;6.13;100.00;99954.06;5029904;28;20053;-72
2022/11/18 08:12:49;;;;;;;10.68;4.43;;;;;;;6.13;100.00;99950.50;5034217;28;20127;-72
2022/11/18 08:15:14;;;;;;;8.35;4.22;;;;;;;6.16;100.00;99961.13;5037479;28;20119;-74
2022/11/18 08:17:39;;;;;;;9.77;4.15;;;;;;;6.16;100.00;99961.13;5030017;28;20065;-72
2022/11/18 08:20:05;;;;;;;7.40;3.92;;;;;;;6.17;100.00;99968.25;5027940;28;20059;-72
2022/11/18 08:22:30;;;;;;;6.80;3.83;;;;;;;6.16;100.00;99966.50;5028103;28;20461;-72
2022/11/18 08:24:56;;;;;;;15.00;4.95;;;;;;;6.20;100.00;99969.84;5028370;28;20124;-72
2022/11/18 08:27:21;;;;;;;8.60;4.70;;;;;;;6.23;100.00;99973.22;5029342;28;20037;-72
2022/11/18 08:29:46;;;;;;;10.30;4.20;;;;;;;6.23;100.00;99983.16;5011843;28;20031;-72
2022/11/18 08:32:12;;;;;;;7.25;4.60;;;;;;;6.22;100.00;99976.88;5029623;28;20469;-72
2022/11/18 08:34:37;;;;;;;10.38;4.32;;;;;;;6.24;100.00;99983.03;5029209;28;20500;-72
2022/11/18 08:37:02;;;;;;;14.73;4.45;;;;;;;6.27;100.00;99981.97;5028043;28;20061;-72
2022/11/18 08:39:28;;;;;;;9.93;4.60;;;;;;;6.34;100.00;99983.28;5028024;28;20033;-71
2022/11/18 08:41:53;;;;;;;10.77;4.80;;;;;;;6.41;100.00;99990.00;5011378;28;20037;-72
2022/11/18 08:44:18;;;;;;;9.27;4.80;;;;;;;6.44;100.00;99989.78;5028072;28;20528;-73
2022/11/18 08:46:44;;;;;;;10.02;4.63;;;;;;;6.53;100.00;99986.44;5027885;28;20140;-73
2022/11/18 08:49:10;;;;;;;9.77;4.30;;;;;;;6.56;100.00;99985.34;5027750;28;20397;-72
2022/11/18 08:51:35;;;;;;;12.25;4.75;;;;;;;6.57;100.00;99989.78;5027834;28;20083;-73
2022/11/18 08:54:01;;;;;;;17.08;4.90;;;;;;;6.60;100.00;99990.44;5029501;28;20049;-72
2022/11/18 08:56:26;;;;;;;8.35;4.40;;;;;;;6.62;100.00;99996.63;5047724;28;20040;-71
2022/11/18 08:58:53;;;;;;;8.85;4.72;;;;;;;6.64;100.00;99991.09;5042140;28;20021;-71
2022/11/18 09:01:18;;;;;;;9.07;4.57;;;;;;;6.67;100.00;99996.31;5029548;28;20492;-72
2022/11/18 09:03:44;;;;;;;9.27;4.70;;;;;;;6.67;100.00;99990.00;5034495;28;20021;-72
2022/11/18 09:06:18;;;;;;;8.27;4.30;;;;;;;6.72;100.00;100004.09;5049492;28;20045;-72
2022/11/18 09:08:44;;;;;;;8.18;4.68;;;;;;;6.77;100.00;100008.19;5045669;28;20376;-72
2022/11/18 09:11:21;;;;;;;9.07;4.72;;;;;;;6.82;100.00;100008.72;5051592;28;20048;-72
2022/11/18 09:13:47;;;;;;;14.35;5.55;;;;;;;6.88;100.00;100004.72;5038545;28;20060;-72
2022/11/18 09:16:13;;;;;;;10.80;4.63;;;;;;;6.96;100.00;100009.59;5031906;28;20041;-72
2022/11/18 09:18:38;;;;;;;12.48;4.60;;;;;;;7.04;100.00;100016.19;5032853;28;20091;-72
2022/11/18 09:21:07;;;;;;;10.90;5.00;;;;;;;7.11;100.00;100016.63;5032054;28;20041;-71
2022/11/18 09:23:34;;;;;;;7.60;4.85;;;;;;;7.20;100.00;100018.66;5038151;28;20021;-72
2022/11/18 09:26:05;;;;;;;14.40;5.65;;;;;;;7.30;100.00;100017.00;5032630;28;20171;-72
2022/11/18 09:28:31;;;;;;;15.13;4.90;;;;;;;7.35;100.00;100020.25;5032789;28;20033;-72
2022/11/18 09:30:56;;;;;;;9.50;4.90;;;;;;;7.45;100.00;100023.16;5036365;28;20017;-72
2022/11/18 09:33:22;;;;;;;12.95;4.93;;;;;;;7.52;100.00;100029.88;5051220;28;20037;-72
2022/11/18 09:35:47;;;;;;;8.38;4.88;;;;;;;7.59;100.00;100033.84;5042133;28;20480;-72
2022/11/18 09:38:13;;;;;;;9.15;5.07;;;;;;;7.66;100.00;100043.25;5040872;28;20452;-72
2022/11/18 09:40:50;;;;;;;10.75;4.50;;;;;;;7.71;100.00;100040.22;5052461;28;20052;-72
2022/11/18 09:43:47;;;;;;;11.02;3.83;;;;;;;7.82;100.00;100051.09;5051542;28;20171;-72
2022/11/18 09:46:20;;;;;;;10.73;4.15;;;;;;;7.92;100.00;100051.28;5031218;28;20496;-72
2022/11/18 09:51:35;;;;;;;10.32;4.57;;;;;;;8.09;100.00;100058.16;5032136;28;20037;-72
2022/11/18 09:54:01;;;;;;;10.70;4.00;;;;;;;8.19;100.00;100067.31;5036793;28;20477;-72
2022/11/18 09:56:26;;;;;;;14.18;4.38;;;;;;;8.22;100.00;100069.81;5032164;28;20048;-71
2022/11/18 09:58:52;;;;;;;11.40;4.72;;;;;;;8.31;100.00;100070.97;5032023;28;20033;-71
2022/11/18 10:01:19;;;;;;;10.63;4.40;;;;;;;8.42;100.00;100071.03;5032368;28;20136;-74
2022/11/18 10:03:45;;;;;;;10.77;4.30;;;;;;;8.56;100.00;100081.69;5032816;28;20045;-72
2022/11/18 10:06:21;;;;;;;8.55;3.97;;;;;;;8.70;100.00;100086.06;5030685;28;20041;-73
2022/11/18 10:09:04;;;;;;;8.18;4.20;;;;;;;8.79;99.67;100090.78;5031204;28;20043;-71
2022/11/18 10:12:02;;;;;;;9.32;4.57;;;;;;;8.86;98.93;100083.00;5014028;28;20048;-72
2022/11/18 10:14:50;;;;;;;11.23;3.70;;;;;;;8.91;98.55;100091.69;5030650;28;20068;-72
2022/11/18 10:17:51;;;;;;;6.70;3.92;;;;;;;9.01;98.49;100091.84;5032215;28;20049;-72
2022/11/18 10:20:30;;;;;;;9.00;3.50;;;;;;;9.06;98.10;100095.91;5032273;28;20045;-72
2022/11/18 10:23:17;;;;;;;8.23;4.05;;;;;;;9.17;98.48;100095.06;5030405;28;20402;-72
2022/11/18 10:25:43;;;;;;;9.32;3.55;;;;;;;9.21;96.21;100096.56;5037545;28;20384;-72
2022/11/18 10:28:16;;;;;;;8.30;3.97;;;;;;;9.26;96.85;100093.47;5041445;28;20038;-73
2022/11/18 10:30:42;;;;;;;8.20;2.83;;;;;;;9.35;97.11;100096.31;5031714;28;20038;-72
2022/11/18 10:33:18;;;;;;;6.95;3.22;;;;;;;9.39;96.30;100099.66;5030480;28;20033;-72
2022/11/18 10:35:43;;;;;;;10.05;3.15;;;;;;;9.40;96.03;100101.38;5032049;28;20101;-71
2022/11/18 10:38:11;;;;;;;7.75;3.03;;;;;;;9.43;95.67;100106.59;5038613;28;20017;-72
2022/11/18 10:40:56;;;;;;;4.43;2.60;;;;;;;9.45;95.82;100108.16;5051404;28;20037;-71
2022/11/18 10:43:43;;;;;;;6.57;2.78;;;;;;;9.46;95.63;100111.75;5047959;28;20149;-72
2022/11/18 10:46:30;;;;;;;9.40;3.70;;;;;;;9.43;93.71;100115.59;5037202;28;20175;-72
2022/11/18 10:49:07;;;;;;;6.35;3.00;;;;;;;9.47;95.19;100112.63;5052442;28;20507;-71
2022/11/18 10:51:34;;;;;;;6.88;2.45;;;;;;;9.46;93.59;100114.47;5044659;28;20037;-72
2022/11/18 10:54:07;;;;;;;11.45;3.00;;;;;;;9.47;94.68;100110.78;5013567;28;20485;-71
2022/11/18 10:56:55;;;;;;;8.60;2.72;;;;;;;9.52;94.73;100116.72;5051128;28;20439;-72
2022/11/18 10:59:32;;;;;;;3.80;2.42;;;;;;;9.54;94.72;100120.16;5040655;28;20484;-73
2022/11/18 11:02:10;;;;;;;7.85;2.90;;;;;;;9.52;93.18;100114.00;5042593;28;20131;-72
2022/11/18 11:04:36;;;;;;;8.52;2.70;;;;;;;9.47;92.77;100118.94;5042638;28;20124;-71
2022/11/18 11:07:15;;;;;;;8.02;2.45;;;;;;;9.40;93.46;100126.69;5020066;28;20035;-72
2022/11/18 11:09:41;;;;;;;5.95;2.72;;;;;;;9.39;93.45;100130.38;5031091;28;20508;-71
2022/11/18 11:12:16;;;;;;;7.35;2.70;;;;;;;9.38;93.44;100122.38;5029515;28;20079;-72
2022/11/18 11:14:56;;;;;;;12.60;3.03;;;;;;;9.39;93.72;100126.81;5030771;28;20128;-70
2022/11/18 11:17:34;;;;;;;7.30;2.78;;;;;;;9.41;94.27;100128.41;5029255;28;20124;-71
2022/11/18 11:20:19;;;;;;;6.70;3.35;;;;;;;9.48;94.15;100138.78;5031268;28;20349;-72
2022/11/18 11:22:45;;;;;;;5.95;2.42;;;;;;;9.53;93.79;100134.72;5030714;28;20037;-72
2022/11/18 11:25:26;;;;;;;10.93;3.28;;;;;;;9.57;92.87;100132.63;5030223;28;20048;-72
2022/11/18 11:28:19;;;;;;;6.07;2.83;;;;;;;9.63;93.98;100137.56;5030721;28;20041;-72
2022/11/18 11:31:00;;;;;;;9.57;3.15;;;;;;;9.68;93.08;100136.22;5030415;28;20033;-71
2022/11/18 11:33:38;;;;;;;5.00;2.47;;;;;;;9.75;93.48;100131.16;5030262;28;20037;-72
2022/11/18 11:36:46;;;;;;;7.63;3.15;;;;;;;9.83;94.12;100134.09;5029423;28;20095;-72
2022/11/18 11:39:36;;;;;;;7.72;2.78;;;;;;;9.94;93.72;100141.41;5030796;28;20053;-71
2022/11/18 11:42:23;;;;;;;7.80;2.95;;;;;;;10.02;93.17;100143.47;5037758;28;20040;-71
2022/11/18 11:45:04;;;;;;;6.60;2.90;;;;;;;10.03;92.04;100154.25;5044872;28;20051;-70
2022/11/18 11:47:48;;;;;;;14.73;4.63;;;;;;;10.00;92.19;100145.47;5048301;28;20040;-71
2022/11/18 11:50:52;;;;;;;7.57;2.80;;;;;;;9.94;91.01;100147.69;5045626;28;20071;-71
2022/11/18 11:53:46;;;;;;;6.68;3.53;;;;;;;9.89;92.21;100146.34;5039986;28;20488;-71
2022/11/18 11:56:39;;;;;;;8.52;3.17;;;;;;;9.82;92.00;100148.69;5022887;28;20098;-71
2022/11/18 11:59:22;;;;;;;9.23;3.13;;;;;;;9.76;92.02;100148.31;5043615;28;20128;-73